Terminal Aerodrome Forecast
Issued by NWS

Home | Current Version | Previous Version | Text Only | Print | Product List | Glossary On
Versions: 1 2 3 4 5 6 7 8 9 10 11 12 13 14
000
FTUS41 KBTV 191614 AAA
TAFMSS
TAF AMD
KMSS 191614Z 1916/2012 20014KT P6SM SCT200
     FM191800 20009KT P6SM BKN120 BKN200
     FM192100 19007KT P6SM VCSH OVC050
     FM192300 13003KT P6SM -SHRA OVC025
     FM200200 08004KT 4SM -RA BR OVC015
     FM200500 06005KT 3SM -RA BR OVC003=

USA.gov is the U.S. government's official web portal to all federal, state and local government web resources and services.